Julian Carroll Airport
KJKL : now visible

Airfield :











YOU CAN JOIN US ON...

 
LOGIN :

Register | Disclaimer

   EN    FR    IT 

 









Legend :    VFR   Marginal VFR   IFR   Intensive IFR   Very Intensive IFR
Visi :
Ceiling :
>= 8 km
>= 3000ft
5 to 8 km
1000 to 3000 ft
1500m to 5 km
500 to 1000 ft
800 to 1500m
200 to 500 ft
< 800m
< 200 ft
Symbols :   Thunderstorms  Fog  Heavy snow  Heavy precipitations  Wind > 20 kt






- Airport Elevation : 1381 ft


KJKL - Julian Carroll

CURRENT METAR :
  • 050653Z AUTO 00000KT 10SM OVC055 20/14 A3012 RMK AO2 SLP185 T02000144

EXPIRED METARs :
  • 050553Z AUTO 14004KT 10SM SCT100 21/14 A3012 RMK AO2 SLP187 T02060139 10233 20206 58001
  • 050453Z AUTO 13003KT 10SM BKN110 21/14 A3013 RMK AO2 SLP189 T02110139 402670178

TAF KJKL
Valid from the 05 at 06:00 until the 06 at 06:00 UTC


050541Z 0506/0606 00000KT P6SM BKN100
FM051700 VRB03KT P6SM SCT100
KZID FIR / North America



MET'MAP, your aeronautical weather chart ! - Copyright ORBIFLY December 2007 - Disclaimer

ORBIFLY MET'MAP TEAM :

Programming & Development : Alexandra Zaïnal
Concept & original design : Baudouin d'Aumeries
Assistance for programming : Marc-Olivier Méhu
Technical & hardware support : Manuel Goepfert

Contact : metmap@orbifly.com




SOURCES & CREDITS :

   NOAA       Earth
Advisory